createdAt,value
2024-05-09T00:07:41.523Z,27.48
2024-05-09T00:17:48.582Z,29.05
2024-05-09T00:27:51.754Z,25.15
2024-05-09T00:37:56.585Z,25.25
2024-05-09T00:48:01.648Z,24.60
2024-05-09T00:58:09.170Z,21.60
2024-05-09T01:08:12.782Z,23.08
2024-05-09T01:18:17.941Z,25.10
2024-05-09T01:28:22.713Z,24.83
2024-05-09T01:38:24.851Z,24.98
2024-05-09T01:48:31.433Z,31.27
2024-05-09T01:58:33.645Z,21.98
2024-05-09T02:08:38.552Z,22.85
2024-05-09T02:18:40.910Z,21.77
2024-05-09T02:28:45.750Z,18.48
2024-05-09T02:38:50.560Z,19.45
2024-05-09T02:48:57.216Z,18.77
2024-05-09T02:58:59.395Z,18.70
2024-05-09T03:09:04.421Z,17.17
2024-05-09T03:19:06.606Z,19.13
2024-05-09T03:29:11.455Z,14.38
2024-05-09T03:39:13.594Z,20.42
2024-05-09T03:49:18.580Z,15.18
2024-05-09T03:59:20.948Z,16.50
2024-05-09T04:09:25.777Z,17.30
2024-05-09T04:19:28.127Z,14.73
2024-05-09T04:29:33.066Z,13.90
2024-05-09T04:39:37.121Z,17.17
2024-05-09T04:49:41.920Z,12.25
2024-05-09T04:59:45.160Z,11.32
2024-05-09T05:09:49.961Z,14.13
2024-05-09T05:19:52.310Z,16.63
2024-05-09T05:29:57.104Z,12.20
2024-05-09T05:40:00.897Z,12.68
2024-05-09T05:50:14.498Z,13.25
2024-05-09T06:00:29.803Z,10.23
2024-05-09T06:10:42.563Z,8.93
2024-05-09T06:20:47.767Z,9.05
2024-05-09T06:30:52.538Z,13.95
2024-05-09T06:40:54.912Z,10.95
2024-05-09T06:50:59.697Z,8.77
2024-05-09T07:01:02.067Z,11.65
2024-05-09T07:11:07.077Z,10.50
2024-05-09T07:21:09.348Z,9.43
2024-05-09T07:31:14.173Z,8.45
2024-05-09T07:41:26.418Z,13.70
2024-05-09T07:53:08.603Z,11.82
2024-05-09T08:01:53.371Z,9.30
2024-05-09T08:11:58.435Z,11.07
2024-05-09T08:22:00.676Z,11.98
2024-05-09T08:32:06.099Z,10.98
2024-05-09T08:42:09.784Z,9.40
2024-05-09T08:52:14.831Z,11.23
2024-05-09T09:02:19.219Z,13.23
2024-05-09T09:12:24.250Z,7.65
2024-05-09T09:22:26.353Z,8.63
2024-05-09T09:32:31.288Z,11.00
2024-05-09T09:42:35.672Z,7.57
2024-05-09T09:52:41.325Z,8.77
2024-05-09T10:02:43.568Z,7.30
2024-05-09T10:12:57.677Z,7.18
2024-05-09T10:22:59.789Z,8.50
2024-05-09T10:33:09.760Z,8.35
2024-05-09T10:43:19.323Z,7.63
2024-05-09T10:53:24.144Z,7.93
2024-05-09T11:03:26.340Z,7.88
2024-05-09T11:13:33.306Z,10.63
2024-05-09T11:23:38.328Z,6.38
2024-05-09T11:33:45.052Z,8.50
2024-05-09T11:43:50.086Z,8.57
2024-05-09T11:53:54.889Z,6.18
2024-05-09T12:03:57.377Z,7.18
2024-05-09T16:31:21.611Z,5.43
2024-05-09T16:41:23.711Z,7.80
2024-05-09T16:51:28.494Z,5.75
2024-05-09T17:01:30.809Z,7.55
2024-05-09T17:11:35.640Z,7.22
2024-05-09T17:21:37.995Z,9.20
2024-05-09T17:31:42.900Z,7.00
2024-05-09T17:41:45.156Z,8.60
2024-05-09T17:51:56.323Z,6.25
2024-05-09T18:01:58.602Z,6.85
2024-05-09T18:12:03.977Z,10.23
2024-05-09T18:22:06.169Z,10.27
2024-05-09T18:32:11.283Z,12.20
2024-05-09T18:42:13.464Z,12.55
2024-05-09T18:52:18.300Z,8.13
2024-05-09T19:02:20.676Z,11.80
2024-05-09T19:12:25.423Z,9.77
2024-05-09T19:22:27.654Z,19.23
2024-05-09T19:32:32.663Z,10.00
2024-05-09T19:42:34.887Z,9.82
2024-05-09T19:52:39.696Z,9.35
2024-05-09T20:02:41.942Z,13.45
2024-05-09T20:12:46.788Z,13.27
2024-05-09T20:22:48.930Z,11.18
2024-05-09T20:32:53.847Z,16.88
2024-05-09T20:42:56.047Z,12.48
2024-05-09T20:53:00.834Z,15.90
2024-05-09T21:03:03.113Z,12.75
2024-05-09T21:13:08.203Z,11.45
2024-05-09T21:23:10.532Z,14.45
2024-05-09T21:33:15.676Z,12.82
2024-05-09T21:43:18.073Z,17.27
2024-05-09T21:53:23.002Z,16.15
2024-05-09T22:03:25.475Z,15.60
2024-05-09T22:13:30.343Z,14.45
2024-05-09T22:23:32.468Z,15.43
2024-05-09T22:33:37.422Z,12.30
2024-05-09T22:43:39.741Z,13.80
2024-05-09T22:53:44.570Z,10.98
2024-05-09T23:03:47.387Z,11.88
2024-05-09T23:13:52.312Z,12.13
2024-05-09T23:23:54.436Z,12.05
2024-05-09T23:33:59.512Z,8.35
2024-05-09T23:44:01.758Z,9.73
2024-05-09T23:54:06.463Z,10.45
